SBOSBO REU / LERS
Speedbird OnlineSpeedbird Online REU / LERS

Reus Air Base
10:57 27.9°C

Location Reus, Spain
Latitude: 41.14739990234375
Longitude: 1.1671700477600098
Local Time 10:57 on 18 Jul 2024
UTC +2 hours (Europe/Madrid)
Currency £1 equals EUR 1.19
METAR LERS 180830Z VRB03KT CAVOK 28/19 Q1018
TAF TAF LERS 180800Z 1809/1909 19008KT CAVOK TX31/1812Z TN22/1905Z BECMG 1817/1819 VRB04KT BECMG 1908/1909 18008KT
Weather As Of 18 Jul 2024 10:57
Description Clear sky
Wind 8 km/h from South (172°)
Cloud Cover 0%
Precipitation Rain: none, Snow: none
Sunrise 06:38
Sunset 21:24
Rotations During the last 90 days there were
1 flights to LHR
Web Airport Website | Wikipedia
Codes IATA: REU
ICAO: LERS
Altitude 71 Meter / 233 Feet
Distance 1,154 KM / 717 Miles
from London.
Runways
RunwayLength (m)Surface
072455Asphalt
12340Graded
252455Asphalt
30340Graded
Radio
TypeDescriptionFrequency
APPAPP118.15
GNDGND121.7
TWRTWR118.15
Live ATC



Support Speedbird Online

© 2017-2024 Speedbird Online